Santa Ana, Argentina
Current Conditions -  °F | °C
As of 10:00 AM on Monday 20 Oct 2014 (Local Time) from SGEN Reporting Station
Clear Clear  
Wind Chill: 77°   Ceiling: Unl
Heat Index: 79°   Visibility: 6mi
Dew Point: 61°   Wind: 17mph
Humidity: 57%   Direction: 130°SE
Pressure: 30.03"   Gusts: NA
Location:  27.37°S, 55.57°W
Report Text: SGEN 201300Z 13015KT CAVOK 25/16 Q1017
Loading
Personal Weather Stations






























Interactive Weather Map
Tropical Storm Tracking
New forecast layout! Learn more

10-Day Weather Forecast

Advertisements
Track Severe Weather on mobile